جازان, السعودية

03:17 PM AST on أعس×س 02, 2015 (GMT +0300)
Jazan | | Change Station
CLOSE
Current Station
Airport
Location: Gizan,
Elevation: 20 ft
Nearby Weather Stations

Elev 20 ft 16.90 °N, 42.59 °E | Updated 17 minutes ago

Unknown
غير معروف
95 °F
Feels Like 94 °F
N
25
ريح متغير ريح from شرق

هذا اليوم
High -- | Low -- °F
--% Chance of Precip.
Yesterday
High -- | Low -- °F
Precip. -- في
5:49 AM 6:41 PM
الأحدب الأخير, 94% visible
الضغط 29.77 في
وضوح الرؤية 0.2 أميال
سحابات Few 3000 ft
Few 3500 ft
غائم كلياً 10000 ft
مؤشر الحرارة 94 °F
نقطة الندى 59 °F
الرطوبة 30%
Rainfall 0.00 في
عمق الثلج Not available.
الأشعة فوق البنفسجية 6 out of 12
Pollen Not available.
جودة الهواء Not available.
Flu Activity Not available.
METAR OEGN 021200Z 09022KT 0300 TS SA FEW030 FEW035CB BKN100 35/15 Q1008 NOSIG

More Conditions Fewer Conditions

الضغط 29.77 في
وضوح الرؤية 0.2 أميال
سحابات Few 3000 ft
Few 3500 ft
غائم كلياً 10000 ft
مؤشر الحرارة 94 °F
نقطة الندى 59 °F
الرطوبة 30%
Rainfall 0.00 في
عمق الثلج Not available.
الأشعة فوق البنفسجية 6 out of 12
Pollen Not available.
جودة الهواء Not available.
Flu Activity Not available.
METAR OEGN 021200Z 09022KT 0300 TS SA FEW030 FEW035CB BKN100 35/15 Q1008 NOSIG

More Conditions Fewer Conditions

10-Day Weather Forecast

×

Almanac

علم الفلك

Aug. 02, 2015 Rise Set
Actual Time
Civil Twilight
Nautical Twilight
Astronomical Twilight
قمر
Length Of Visible Light
طول الیوم
Tomorrow will be .
, % of the Moon is Illuminated

Today's Extremes

Country Highs Country Lows

Community

WunderPhotos

Upload Photos

1,843,233 photos uploaded!

WunderBlogs® & News

Nearby

جودة الهواء

  جودة الهواء AQ Index Pollutant
Not available.

عمق الثلج

Station Depth Elevation

Earthquake Activity

City Distance Mag. Time & Date
Minimum magnitude displayed is 2.5.

Coastal Water Temperatures

مكان درجات الحرارة

Stations

Nearby Weather Stations

Station Location الحرارة رياح باردة نقطة الندى الرطوبة ريح Precip. Elev تحديث Type